Bernardo Quintana A. — C6KJ5 — position and weather

sailwx.info

Track history (hours):
 
Tides and Currents Weather Stations Pressure Air Temp Water Temp Dewpoint Dewpoint Depression Visibility Wind Speed Wind Dir Waves Ship Positions

Bernardo Quintana A.

Last reported at 2017-May-26 04:42 UTC. Time now 2017-Nov-18 19:13 UTC.
Position S 20°54' E 057°32'.
Warning: this ship's position is months out of date.

Type: Ship. MMSI: 308245000.

Date/timePositionNaut miles runAvg speedWind from/ knotsBaromVisibWave heightAir tempDewpointWater temp
2017-May-26 04:42S 20°54' E 057°32'  
2017-May-23 00:00S 28°48' E 043°30'15613.0 300 / 131021.010.8 24.019.423.0
2017-May-22 12:00S 29°54' E 040°48'8811.8 300 / 131021.010.8 24.019.423.0
2017-May-22 04:36S 30°32' E 039°16'612.0
2017-May-22 04:06S 30°34' E 039°10'3812.6
2017-May-22 01:04S 30°48' E 038°29'112.6
2017-May-22 01:00S 30°48' E 038°28'712.4
2017-May-22 00:25S 30°50' E 038°20'3 6.7
2017-May-22 00:00S 30°48' E 038°18'1716.7 300 / 131021.010.8 21.019.423.0
2017-May-21 22:59S 30°57' E 038°01'712.3
2017-May-21 22:26S 30°59' E 037°54'512.2
2017-May-21 22:00S 31°00' E 037°48'4212.3
2017-May-21 18:35S 31°14' E 037°01'111.9
2017-May-21 18:30S 31°15' E 037°00'611.9
2017-May-21 17:57S 31°17' E 036°53'1512.0
2017-May-21 16:41S 31°22' E 036°36'312.2
2017-May-21 16:25S 31°23' E 036°33'912.2
2017-May-21 15:41S 31°26' E 036°23'312.1
2017-May-21 15:28S 31°26' E 036°20'1812.3
2017-May-21 14:00S 31°33' E 036°00'1412.0
2017-May-21 12:51S 31°37' E 035°45'411.9
2017-May-21 12:30S 31°39' E 035°40'917.9
2017-May-21 12:00S 31°36' E 035°30'7311.5 300 / 131021.010.8 24.021.025.0
2017-May-21 05:39S 32°06' E 034°11'211.0
2017-May-21 05:30S 32°06' E 034°09'510.9
2017-May-21 05:00S 32°08' E 034°03'611.0
2017-May-21 04:26S 32°10' E 033°56'511.0
2017-May-21 04:00S 32°12' E 033°51'510.9
2017-May-21 03:30S 32°13' E 033°45'510.8
2017-May-21 03:01S 32°15' E 033°39'510.8
2017-May-21 02:31S 32°17' E 033°33'611.1
2017-May-21 01:59S 32°19' E 033°27'511.1
2017-May-21 01:29S 32°21' E 033°21'1811.9
2017-May-21 00:00S 32°24' E 033°00'1410.9 260 / 81022.0 5.4 23.021.521.1
2017-May-20 22:42S 32°31' E 032°45'211.6
2017-May-20 22:30S 32°32' E 032°43'611.6
2017-May-20 22:01S 32°34' E 032°37'611.6
2017-May-20 21:31S 32°36' E 032°30'611.9
2017-May-20 21:01S 32°38' E 032°24'611.8
2017-May-20 20:30S 32°40' E 032°17'611.9
2017-May-20 20:00S 32°42' E 032°10'611.9
2017-May-20 19:30S 32°44' E 032°04'611.7
2017-May-20 19:01S 32°46' E 031°57'611.7
2017-May-20 18:31S 32°48' E 031°50'611.8
2017-May-20 18:01S 32°50' E 031°44'612.1
2017-May-20 17:31S 32°52' E 031°37'612.2
2017-May-20 17:01S 32°54' E 031°30'612.2
2017-May-20 16:30S 32°55' E 031°23'712.9
2017-May-20 16:00S 32°58' E 031°16'613.1
2017-May-20 15:31S 33°00' E 031°09'713.3
2017-May-20 15:00S 33°03' E 031°01'1413.7
2017-May-20 13:59S 33°07' E 030°46'713.7
2017-May-20 13:30S 33°09' E 030°38'713.6
2017-May-20 12:59S 33°12' E 030°30'613.6
2017-May-20 12:30S 33°14' E 030°23'713.4
2017-May-20 12:00S 33°16' E 030°15'5341.5
2017-May-20 12:00S 33°12' E 030°12'714.7 230 / 141022.010.8 24.022.525.1
2017-May-20 11:30S 33°18' E 030°08'713.3
2017-May-20 11:00S 33°21' E 030°00'6412.8
2017-May-20 06:00S 33°42' E 028°48'58 9.6 250 / 111023.010.8 22.521.725.1
2017-May-20 00:00S 34°00' E 027°42'56 9.3 330 / 91021.0 5.4 22.020.520.0
2017-May-19 18:00S 34°12' E 026°36'   310 / 61021.010.8 19.017.424.0
2017-May-17 00:00S 33°00' E 016°12'7212.0 210 / 91020.510.8 19.017.419.7
2017-May-16 18:00S 32°30' E 014°54'7412.3 210 / 91020.510.8 19.017.419.7
2017-May-16 12:00S 31°48' E 013°42'7010.0 230 / 91021.0 5.4 18.018.019.9
2017-May-16 05:00S 31°06' E 012°36'   260 / 51018.5 5.4 18.018.019.9
Track history (hours):
 
Tides and Currents Weather Stations Pressure Air Temp Water Temp Dewpoint Dewpoint Depression Visibility Wind Speed Wind Dir Waves Ship Positions

Bernardo Quintana A.

Last reported at 2017-May-26 04:42 UTC. Time now 2017-Nov-18 19:13 UTC.
Position S 20°54' E 057°32'.
Warning: this ship's position is months out of date.

Type: Ship. MMSI: 308245000.

Date/timePositionNaut miles runAvg speedWind from/ knotsBaromVisibWave heightAir tempDewpointWater temp
2017-May-26 04:42S 20°54' E 057°32'  
2017-May-23 00:00S 28°48' E 043°30'15613.0 300 / 131021.010.8 24.019.423.0
2017-May-22 12:00S 29°54' E 040°48'8811.8 300 / 131021.010.8 24.019.423.0
2017-May-22 04:36S 30°32' E 039°16'612.0
2017-May-22 04:06S 30°34' E 039°10'3812.6
2017-May-22 01:04S 30°48' E 038°29'112.6
2017-May-22 01:00S 30°48' E 038°28'712.4
2017-May-22 00:25S 30°50' E 038°20'3 6.7
2017-May-22 00:00S 30°48' E 038°18'1716.7 300 / 131021.010.8 21.019.423.0
2017-May-21 22:59S 30°57' E 038°01'712.3
2017-May-21 22:26S 30°59' E 037°54'512.2
2017-May-21 22:00S 31°00' E 037°48'4212.3
2017-May-21 18:35S 31°14' E 037°01'111.9
2017-May-21 18:30S 31°15' E 037°00'611.9
2017-May-21 17:57S 31°17' E 036°53'1512.0
2017-May-21 16:41S 31°22' E 036°36'312.2
2017-May-21 16:25S 31°23' E 036°33'912.2
2017-May-21 15:41S 31°26' E 036°23'312.1
2017-May-21 15:28S 31°26' E 036°20'1812.3
2017-May-21 14:00S 31°33' E 036°00'1412.0
2017-May-21 12:51S 31°37' E 035°45'411.9
2017-May-21 12:30S 31°39' E 035°40'917.9
2017-May-21 12:00S 31°36' E 035°30'7311.5 300 / 131021.010.8 24.021.025.0
2017-May-21 05:39S 32°06' E 034°11'211.0
2017-May-21 05:30S 32°06' E 034°09'510.9
2017-May-21 05:00S 32°08' E 034°03'611.0
2017-May-21 04:26S 32°10' E 033°56'511.0
2017-May-21 04:00S 32°12' E 033°51'510.9
2017-May-21 03:30S 32°13' E 033°45'510.8
2017-May-21 03:01S 32°15' E 033°39'510.8
2017-May-21 02:31S 32°17' E 033°33'611.1
2017-May-21 01:59S 32°19' E 033°27'511.1
2017-May-21 01:29S 32°21' E 033°21'1811.9
2017-May-21 00:00S 32°24' E 033°00'1410.9 260 / 81022.0 5.4 23.021.521.1
2017-May-20 22:42S 32°31' E 032°45'211.6
2017-May-20 22:30S 32°32' E 032°43'611.6
2017-May-20 22:01S 32°34' E 032°37'611.6
2017-May-20 21:31S 32°36' E 032°30'611.9
2017-May-20 21:01S 32°38' E 032°24'611.8
2017-May-20 20:30S 32°40' E 032°17'611.9
2017-May-20 20:00S 32°42' E 032°10'611.9
2017-May-20 19:30S 32°44' E 032°04'611.7
2017-May-20 19:01S 32°46' E 031°57'611.7
2017-May-20 18:31S 32°48' E 031°50'611.8
2017-May-20 18:01S 32°50' E 031°44'612.1
2017-May-20 17:31S 32°52' E 031°37'612.2
2017-May-20 17:01S 32°54' E 031°30'612.2
2017-May-20 16:30S 32°55' E 031°23'712.9
2017-May-20 16:00S 32°58' E 031°16'613.1
2017-May-20 15:31S 33°00' E 031°09'713.3
2017-May-20 15:00S 33°03' E 031°01'1413.7
2017-May-20 13:59S 33°07' E 030°46'713.7
2017-May-20 13:30S 33°09' E 030°38'713.6
2017-May-20 12:59S 33°12' E 030°30'613.6
2017-May-20 12:30S 33°14' E 030°23'713.4
2017-May-20 12:00S 33°16' E 030°15'5341.5
2017-May-20 12:00S 33°12' E 030°12'714.7 230 / 141022.010.8 24.022.525.1
2017-May-20 11:30S 33°18' E 030°08'713.3
2017-May-20 11:00S 33°21' E 030°00'6412.8
2017-May-20 06:00S 33°42' E 028°48'58 9.6 250 / 111023.010.8 22.521.725.1
2017-May-20 00:00S 34°00' E 027°42'56 9.3 330 / 91021.0 5.4 22.020.520.0
2017-May-19 18:00S 34°12' E 026°36'   310 / 61021.010.8 19.017.424.0
2017-May-17 00:00S 33°00' E 016°12'7212.0 210 / 91020.510.8 19.017.419.7
2017-May-16 18:00S 32°30' E 014°54'7412.3 210 / 91020.510.8 19.017.419.7
2017-May-16 12:00S 31°48' E 013°42'7010.0 230 / 91021.0 5.4 18.018.019.9
2017-May-16 05:00S 31°06' E 012°36'   260 / 51018.5 5.4 18.018.019.9

Dump ship's entire track history